createdAt,value
2023-04-08T00:00:09.083Z,96737.56
2023-04-08T00:03:06.018Z,96737.53
2023-04-08T00:06:03.974Z,96732.72
2023-04-08T00:09:00.985Z,96727.72
2023-04-08T00:11:57.924Z,96733.81
2023-04-08T00:14:54.816Z,96736.22
2023-04-08T00:17:53.629Z,96735.91
2023-04-08T00:20:50.538Z,96731.97
2023-04-08T00:23:47.801Z,96728.78
2023-04-08T00:26:44.609Z,96735.91
2023-04-08T00:29:41.416Z,96743.59
2023-04-08T00:32:38.530Z,96730.88
2023-04-08T00:35:35.407Z,96742.31
2023-04-08T00:38:32.276Z,96741.47
2023-04-08T00:41:29.070Z,96738.06
2023-04-08T00:44:25.903Z,96732.19
2023-04-08T00:47:22.900Z,96738.81
2023-04-08T00:50:20.408Z,96742.03
2023-04-08T00:53:19.636Z,96744.13
2023-04-08T00:56:16.486Z,96739.88
2023-04-08T00:59:13.568Z,96738.81
2023-04-08T01:02:36.268Z,96742.75
2023-04-08T01:05:56.677Z,96741.94
2023-04-08T01:08:54.471Z,96737.72
2023-04-08T01:11:53.774Z,96739.63
2023-04-08T01:14:55.829Z,96750.94
2023-04-08T01:17:58.765Z,96749.69
2023-04-08T01:20:56.397Z,96741.16
2023-04-08T01:24:30.588Z,96762.69
2023-04-08T01:27:30.937Z,96755.28
2023-04-08T01:30:30.677Z,96749.44
2023-04-08T01:33:28.401Z,96744.03
2023-04-08T01:36:26.413Z,96756.50
2023-04-08T01:39:25.428Z,96757.03
2023-04-08T01:42:25.938Z,96758.63
2023-04-08T01:45:24.139Z,96754.91
2023-04-08T01:48:21.694Z,96757.78
2023-04-08T01:51:20.047Z,96755.47
2023-04-08T01:54:16.962Z,96749.03
2023-04-08T01:57:24.141Z,96748.28
2023-04-08T02:00:25.997Z,96747.41
2023-04-08T02:03:25.690Z,96752.41
2023-04-08T02:06:23.717Z,96754.22
2023-04-08T02:09:20.517Z,96755.78
2023-04-08T02:12:17.739Z,96757.88
2023-04-08T02:15:15.705Z,96752.53
2023-04-08T02:18:19.208Z,96756.38
2023-04-08T02:21:18.121Z,96755.44
2023-04-08T02:24:17.643Z,96761.31
2023-04-08T02:27:15.811Z,96764.72
2023-04-08T02:30:13.579Z,96753.84
2023-04-08T02:33:12.269Z,96755.47
2023-04-08T02:36:11.152Z,96757.59
2023-04-08T02:39:08.031Z,96749.97
2023-04-08T02:42:05.956Z,96752.84
2023-04-08T02:45:03.063Z,96753.69
2023-04-08T02:48:01.260Z,96748.94
2023-04-08T02:50:58.135Z,96745.41
2023-04-08T02:53:55.395Z,96747.03
2023-04-08T02:56:52.213Z,96752.31
2023-04-08T02:59:49.010Z,96757.63
2023-04-08T03:02:46.313Z,96753.09
2023-04-08T03:05:43.263Z,96755.22
2023-04-08T03:08:40.286Z,96752.84
2023-04-08T03:11:37.090Z,96755.81
2023-04-08T03:14:33.940Z,96760.09
2023-04-08T03:17:33.721Z,96759.47
2023-04-08T03:20:30.836Z,96755.63
2023-04-08T03:23:27.647Z,96753.69
2023-04-08T03:26:24.499Z,96760.84
2023-04-08T03:29:21.301Z,96758.88
2023-04-08T03:32:18.856Z,96771.06
2023-04-08T03:35:15.720Z,96764.44
2023-04-08T03:38:12.534Z,96769.00
2023-04-08T03:41:09.424Z,96773.84
2023-04-08T03:44:06.361Z,96764.72
2023-04-08T03:47:03.184Z,96778.44
2023-04-08T03:50:00.016Z,96776.22
2023-04-08T03:52:56.823Z,96777.44
2023-04-08T03:55:56.652Z,96787.06
2023-04-08T03:58:53.802Z,96783.81
2023-04-08T04:01:51.541Z,96785.69
2023-04-08T04:04:48.509Z,96790.75
2023-04-08T04:07:45.384Z,96801.16
2023-04-08T04:10:42.310Z,96802.03
2023-04-08T04:13:39.204Z,96787.38
2023-04-08T04:16:36.147Z,96797.97
2023-04-08T04:19:33.102Z,96801.97
2023-04-08T04:22:29.969Z,96799.00
2023-04-08T04:25:27.067Z,96798.03
2023-04-08T04:28:24.055Z,96807.22
2023-04-08T04:31:23.120Z,96805.81
2023-04-08T04:34:20.249Z,96809.25
2023-04-08T04:37:17.251Z,96809.22
2023-04-08T04:40:14.214Z,96815.06
2023-04-08T04:43:11.260Z,96821.31
2023-04-08T04:46:09.100Z,96819.06
2023-04-08T04:49:06.128Z,96828.78
2023-04-08T04:52:02.998Z,96818.59
2023-04-08T04:54:59.834Z,96826.34
2023-04-08T04:57:56.651Z,96815.31
2023-04-08T05:00:53.505Z,96823.19
2023-04-08T05:03:50.478Z,96834.28
2023-04-08T05:06:47.314Z,96838.81
2023-04-08T05:09:44.141Z,96844.22
2023-04-08T05:12:41.382Z,96827.06
2023-04-08T05:15:38.272Z,96830.88
2023-04-08T05:18:35.166Z,96828.13
2023-04-08T05:21:32.671Z,96836.50
2023-04-08T05:24:29.496Z,96828.41
2023-04-08T05:27:26.351Z,96834.19
2023-04-08T05:30:23.281Z,96838.00
2023-04-08T05:33:20.149Z,96836.97
2023-04-08T05:36:17.032Z,96841.78
2023-04-08T05:39:14.100Z,96853.56
2023-04-08T05:42:12.848Z,96852.66
2023-04-08T05:45:10.566Z,96860.19
2023-04-08T05:48:07.458Z,96862.09
2023-04-08T05:51:04.439Z,96861.06
2023-04-08T05:54:01.325Z,96858.41
2023-04-08T05:56:58.161Z,96868.63
2023-04-08T05:59:55.149Z,96861.06
2023-04-08T06:02:52.217Z,96864.81
2023-04-08T06:05:49.153Z,96866.69
2023-04-08T06:08:45.974Z,96870.84
2023-04-08T06:11:43.071Z,96860.50
2023-04-08T06:14:39.890Z,96869.09
2023-04-08T06:17:37.803Z,96876.22
2023-04-08T06:20:36.276Z,96883.19
2023-04-08T06:23:33.328Z,96892.63
2023-04-08T06:26:30.178Z,96887.88
2023-04-08T06:29:26.999Z,96881.16
2023-04-08T06:32:23.882Z,96887.94
2023-04-08T06:35:20.911Z,96881.19
2023-04-08T06:38:17.734Z,96890.63
2023-04-08T06:41:14.551Z,96892.53
2023-04-08T06:44:11.367Z,96888.63
2023-04-08T06:47:08.202Z,96893.81
2023-04-08T06:50:05.938Z,96887.25
2023-04-08T06:53:02.765Z,96893.13
2023-04-08T06:56:00.228Z,96900.38
2023-04-08T06:58:57.130Z,96909.97
2023-04-08T07:01:54.009Z,96912.34
2023-04-08T07:04:50.960Z,96907.88
2023-04-08T07:07:47.793Z,96906.53
2023-04-08T07:10:44.919Z,96905.88
2023-04-08T07:13:41.752Z,96902.75
2023-04-08T07:16:38.625Z,96911.25
2023-04-08T07:19:36.039Z,96905.81
2023-04-08T07:22:32.906Z,96908.97
2023-04-08T07:25:29.993Z,96922.00
2023-04-08T07:28:26.866Z,96919.97
2023-04-08T07:31:23.792Z,96926.88
2023-04-08T07:34:20.659Z,96928.69
2023-04-08T07:37:18.063Z,96929.41
2023-04-08T07:40:15.000Z,96934.16
2023-04-08T07:43:12.106Z,96931.28
2023-04-08T07:46:09.161Z,96925.00
2023-04-08T07:49:06.726Z,96922.47
2023-04-08T07:52:03.576Z,96928.88
2023-04-08T07:55:01.504Z,96928.22
2023-04-08T07:57:58.573Z,96937.00
2023-04-08T08:00:57.314Z,96931.75
2023-04-08T08:03:54.619Z,96953.81
2023-04-08T08:06:51.781Z,96957.81
2023-04-08T08:09:49.076Z,96956.41
2023-04-08T08:12:45.893Z,96967.44
2023-04-08T08:15:42.802Z,96962.59
2023-04-08T08:18:41.005Z,96953.56
2023-04-08T08:21:38.041Z,96953.59
2023-04-08T08:24:34.837Z,96962.53
2023-04-08T08:27:31.655Z,96967.66
2023-04-08T08:30:28.656Z,96971.88
2023-04-08T08:33:25.986Z,96983.78
2023-04-08T08:36:22.863Z,96970.06
2023-04-08T08:39:19.700Z,96977.22
2023-04-08T08:42:24.094Z,96985.38
2023-04-08T08:45:21.259Z,96991.31
2023-04-08T08:48:18.143Z,96995.28
2023-04-08T08:51:14.998Z,97002.75
2023-04-08T08:54:11.878Z,97009.16
2023-04-08T08:57:20.437Z,97002.78
2023-04-08T09:00:17.733Z,97011.56
2023-04-08T09:03:21.119Z,97011.06
2023-04-08T09:06:18.798Z,97015.06
2023-04-08T09:09:15.915Z,97028.38
2023-04-08T09:12:14.007Z,97025.66
2023-04-08T09:15:11.081Z,97015.97
2023-04-08T09:18:23.282Z,97025.22
2023-04-08T09:21:24.864Z,97030.91
2023-04-08T09:24:30.399Z,97033.25
2023-04-08T09:27:36.360Z,97042.00
2023-04-08T09:30:33.259Z,97047.25
2023-04-08T09:33:33.261Z,97049.50
2023-04-08T09:36:30.722Z,97047.50
2023-04-08T09:39:27.541Z,97042.44
2023-04-08T09:42:26.223Z,97052.13
2023-04-08T09:45:25.509Z,97046.59
2023-04-08T09:48:27.811Z,97049.69
2023-04-08T09:51:25.566Z,97059.06
2023-04-08T09:54:25.270Z,97069.28
2023-04-08T09:57:53.021Z,97053.59
2023-04-08T10:00:53.493Z,97071.59
2023-04-08T10:03:54.984Z,97069.94
2023-04-08T10:07:03.556Z,97069.88
2023-04-08T10:10:00.476Z,97060.84
2023-04-08T10:12:57.811Z,97060.13
2023-04-08T10:16:27.613Z,97066.72
2023-04-08T10:19:43.461Z,97070.13
2023-04-08T10:22:50.386Z,97059.75
2023-04-08T10:25:48.825Z,97065.03
2023-04-08T10:28:45.801Z,97065.56
2023-04-08T10:31:42.798Z,97057.88
2023-04-08T10:34:54.060Z,97063.31
2023-04-08T10:37:50.899Z,97061.47
2023-04-08T10:40:49.528Z,97065.63
2023-04-08T10:43:47.509Z,97061.72
2023-04-08T10:46:49.130Z,97058.19
2023-04-08T10:49:47.503Z,97061.53
2023-04-08T10:52:50.821Z,97060.06
2023-04-08T10:55:47.665Z,97074.00
2023-04-08T10:58:52.836Z,97067.88
2023-04-08T11:01:49.745Z,97061.59
2023-04-08T11:04:48.362Z,97071.47
2023-04-08T11:07:45.522Z,97079.81
2023-04-08T11:10:44.937Z,97075.47
2023-04-08T11:13:52.614Z,97076.03
2023-04-08T11:16:50.283Z,97085.13
2023-04-08T11:19:47.381Z,97072.91
2023-04-08T11:22:45.204Z,97076.13
2023-04-08T11:25:43.507Z,97079.00
2023-04-08T11:28:40.418Z,97076.28
2023-04-08T11:31:37.762Z,97080.00
2023-04-08T11:34:39.495Z,97079.25
2023-04-08T11:37:41.284Z,97079.03
2023-04-08T11:40:38.759Z,97076.66
2023-04-08T11:43:40.930Z,97083.03
2023-04-08T11:46:38.101Z,97083.84
2023-04-08T11:49:45.726Z,97075.72
2023-04-08T11:52:49.479Z,97078.03
2023-04-08T11:55:46.692Z,97075.50
2023-04-08T11:58:43.510Z,97062.50
2023-04-08T12:01:40.406Z,97069.47
2023-04-08T12:04:37.298Z,97062.09
2023-04-08T12:07:34.135Z,97062.63
2023-04-08T12:10:31.246Z,97064.91
2023-04-08T12:13:28.159Z,97077.22
2023-04-08T12:16:25.096Z,97075.38
2023-04-08T12:19:22.137Z,97069.31
2023-04-08T12:22:19.063Z,97067.75
2023-04-08T12:25:16.217Z,97068.78
2023-04-08T12:28:13.097Z,97066.66
2023-04-08T12:31:09.935Z,97084.16
2023-04-08T12:34:07.119Z,97076.97
2023-04-08T12:37:03.971Z,97076.66
2023-04-08T12:40:01.297Z,97085.75
2023-04-08T12:42:58.238Z,97080.41
2023-04-08T12:45:55.049Z,97080.38
2023-04-08T12:49:03.125Z,97081.75
2023-04-08T12:52:01.251Z,97083.69
2023-04-08T12:54:58.066Z,97072.50
2023-04-08T12:57:54.913Z,97075.41
2023-04-08T13:00:51.863Z,97074.06
2023-04-08T13:03:49.006Z,97083.69
2023-04-08T13:06:46.266Z,97076.50
2023-04-08T13:09:45.381Z,97071.19
2023-04-08T13:12:42.627Z,97079.44
2023-04-08T13:15:39.717Z,97076.75
2023-04-08T13:18:36.723Z,97079.44
2023-04-08T13:21:33.598Z,97077.31
2023-04-08T13:24:30.428Z,97082.22
2023-04-08T13:27:27.330Z,97072.75
2023-04-08T13:30:24.176Z,97072.91
2023-04-08T13:33:22.218Z,97076.75
2023-04-08T13:36:19.070Z,97089.38
2023-04-08T13:39:15.955Z,97075.59
2023-04-08T13:42:12.781Z,97073.97
2023-04-08T13:45:10.155Z,97080.78
2023-04-08T13:48:07.538Z,97069.50
2023-04-08T13:51:04.460Z,97072.25
2023-04-08T13:54:01.331Z,97078.25
2023-04-08T13:56:58.172Z,97080.19
2023-04-08T13:59:55.028Z,97092.97
2023-04-08T14:02:52.315Z,97089.28
2023-04-08T14:05:50.906Z,97094.88
2023-04-08T14:08:47.749Z,97094.63
2023-04-08T14:11:44.656Z,97089.28
2023-04-08T14:14:41.628Z,97091.94
2023-04-08T14:17:38.752Z,97090.31
2023-04-08T14:20:35.874Z,97087.66
2023-04-08T14:23:32.882Z,97085.28
2023-04-08T14:26:29.785Z,97086.84
2023-04-08T14:29:27.677Z,97075.59
2023-04-08T14:32:24.693Z,97078.63
2023-04-08T14:35:21.831Z,97088.25
2023-04-08T14:38:20.481Z,97094.03
2023-04-08T14:41:17.288Z,97097.00
2023-04-08T14:44:14.220Z,97094.34
2023-04-08T14:47:12.166Z,97108.47
2023-04-08T14:50:09.505Z,97103.94
2023-04-08T14:53:06.385Z,97107.41
2023-04-08T14:56:04.149Z,97098.59
2023-04-08T14:59:01.018Z,97091.69
2023-04-08T15:01:58.017Z,97089.84
2023-04-08T15:04:54.872Z,97085.38
2023-04-08T15:07:51.766Z,97085.84
2023-04-08T15:10:48.737Z,97093.88
2023-04-08T15:13:45.674Z,97094.19
2023-04-08T15:16:42.551Z,97097.28
2023-04-08T15:19:39.348Z,97095.66
2023-04-08T15:22:36.509Z,97098.19
2023-04-08T15:25:33.320Z,97102.72
2023-04-08T15:28:30.134Z,97106.22
2023-04-08T15:31:27.347Z,97110.28
2023-04-08T15:34:24.257Z,97119.63
2023-04-08T15:37:22.590Z,97121.78
2023-04-08T15:40:19.522Z,97126.31
2023-04-08T15:43:16.451Z,97119.66
2023-04-08T15:46:19.172Z,97127.09
2023-04-08T15:49:16.708Z,97126.53
2023-04-08T15:52:13.515Z,97127.34
2023-04-08T15:55:10.613Z,97128.97
2023-04-08T15:58:07.681Z,97128.69
2023-04-08T16:01:04.860Z,97133.72
2023-04-08T16:04:02.285Z,97140.13
2023-04-08T16:06:59.218Z,97145.41
2023-04-08T16:09:56.082Z,97147.00
2023-04-08T16:12:53.162Z,97146.78
2023-04-08T16:15:50.712Z,97152.25
2023-04-08T16:18:48.577Z,97161.00
2023-04-08T16:21:45.454Z,97158.91
2023-04-08T16:24:42.346Z,97161.91
2023-04-08T16:27:39.216Z,97166.16
2023-04-08T16:30:37.612Z,97171.19
2023-04-08T16:33:34.448Z,97175.72
2023-04-08T16:36:31.288Z,97178.91
2023-04-08T16:39:28.444Z,97177.84
2023-04-08T16:42:25.358Z,97172.81
2023-04-08T16:45:22.201Z,97180.53
2023-04-08T16:48:19.331Z,97177.06
2023-04-08T16:51:17.514Z,97189.84
2023-04-08T16:54:14.373Z,97187.75
2023-04-08T16:57:11.414Z,97197.78
2023-04-08T17:00:09.148Z,97199.06
2023-04-08T17:03:08.484Z,97202.19
2023-04-08T17:06:12.041Z,97201.44
2023-04-08T17:09:09.184Z,97206.03
2023-04-08T17:12:06.284Z,97202.78
2023-04-08T17:15:03.947Z,97213.94
2023-04-08T17:18:01.030Z,97212.88
2023-04-08T17:20:57.980Z,97222.47
2023-04-08T17:23:54.888Z,97216.53
2023-04-08T17:26:52.604Z,97216.31
2023-04-08T17:29:49.850Z,97220.56
2023-04-08T17:32:46.692Z,97215.41
2023-04-08T17:35:43.598Z,97220.84
2023-04-08T17:38:41.196Z,97216.56
2023-04-08T17:41:40.736Z,97225.91
2023-04-08T17:44:38.537Z,97227.94
2023-04-08T17:47:35.498Z,97234.91
2023-04-08T17:50:33.086Z,97230.69
2023-04-08T17:53:30.509Z,97231.84
2023-04-08T17:56:28.211Z,97234.78
2023-04-08T17:59:25.590Z,97235.56
2023-04-08T18:02:22.631Z,97232.38
2023-04-08T18:05:20.259Z,97241.78
2023-04-08T18:08:17.162Z,97238.22
2023-04-08T18:11:14.114Z,97242.78
2023-04-08T18:14:12.475Z,97254.72
2023-04-08T18:17:09.423Z,97247.78
2023-04-08T18:20:07.319Z,97254.91
2023-04-08T18:23:04.473Z,97254.38
2023-04-08T18:26:01.320Z,97253.63
2023-04-08T18:28:58.174Z,97260.22
2023-04-08T18:31:54.999Z,97272.13
2023-04-08T18:34:53.088Z,97267.41
2023-04-08T18:37:49.922Z,97272.25
2023-04-08T18:40:46.773Z,97275.22
2023-04-08T18:43:43.573Z,97279.38
2023-04-08T18:46:40.509Z,97281.41
2023-04-08T18:49:40.073Z,97278.75
2023-04-08T18:52:37.446Z,97278.78
2023-04-08T18:55:38.689Z,97279.94
2023-04-08T18:58:36.764Z,97279.56
2023-04-08T19:01:35.869Z,97288.88
2023-04-08T19:04:33.468Z,97288.88
2023-04-08T19:07:30.489Z,97281.50
2023-04-08T19:10:34.363Z,97284.56
2023-04-08T19:13:31.587Z,97288.28
2023-04-08T19:16:28.487Z,97290.72
2023-04-08T19:19:25.430Z,97286.81
2023-04-08T19:22:22.395Z,97279.81
2023-04-08T19:25:19.852Z,97289.59
2023-04-08T19:28:16.692Z,97294.81
2023-04-08T19:31:18.489Z,97292.50
2023-04-08T19:34:15.382Z,97294.94
2023-04-08T19:37:12.264Z,97297.03
2023-04-08T19:40:10.082Z,97298.91
2023-04-08T19:43:06.906Z,97293.09
2023-04-08T19:46:03.806Z,97300.41
2023-04-08T19:49:00.723Z,97305.34
2023-04-08T19:51:58.441Z,97298.03
2023-04-08T19:54:55.280Z,97301.41
2023-04-08T19:57:52.382Z,97308.94
2023-04-08T20:00:49.181Z,97311.91
2023-04-08T20:03:50.250Z,97312.91
2023-04-08T20:06:47.381Z,97312.38
2023-04-08T20:09:44.331Z,97307.94
2023-04-08T20:12:41.425Z,97316.41
2023-04-08T20:15:38.250Z,97304.94
2023-04-08T20:18:35.112Z,97306.06
2023-04-08T20:21:32.644Z,97316.25
2023-04-08T20:24:29.551Z,97316.69
2023-04-08T20:27:27.131Z,97308.91
2023-04-08T20:30:24.115Z,97308.94
2023-04-08T20:33:21.085Z,97311.66
2023-04-08T20:36:17.910Z,97317.34
2023-04-08T20:39:14.741Z,97317.47
2023-04-08T20:42:11.557Z,97315.56
2023-04-08T20:45:09.419Z,97319.56
2023-04-08T20:48:07.499Z,97316.56
2023-04-08T20:51:04.456Z,97321.31
2023-04-08T20:54:01.308Z,97317.59
2023-04-08T20:56:58.146Z,97323.78
2023-04-08T20:59:54.972Z,97319.56
2023-04-08T21:02:52.756Z,97322.69
2023-04-08T21:05:50.193Z,97320.84
2023-04-08T21:08:48.076Z,97330.31
2023-04-08T21:11:44.948Z,97326.56
2023-04-08T21:14:42.091Z,97318.50
2023-04-08T21:17:39.016Z,97327.50
2023-04-08T21:20:36.184Z,97327.78
2023-04-08T21:23:33.032Z,97335.94
2023-04-08T21:26:29.909Z,97334.00
2023-04-08T21:29:26.717Z,97322.28
2023-04-08T21:32:23.793Z,97326.81
2023-04-08T21:35:20.790Z,97328.13
2023-04-08T21:38:17.621Z,97328.13
2023-04-08T21:41:14.555Z,97327.59
2023-04-08T21:44:11.432Z,97325.66
2023-04-08T21:47:08.271Z,97326.44
2023-04-08T21:50:06.139Z,97331.66
2023-04-08T21:53:02.988Z,97331.97
2023-04-08T21:55:59.816Z,97341.56
2023-04-08T21:58:56.614Z,97329.75
2023-04-08T22:01:53.910Z,97339.72
2023-04-08T22:04:51.949Z,97333.53
2023-04-08T22:07:48.809Z,97330.66
2023-04-08T22:10:46.518Z,97331.13
2023-04-08T22:13:43.312Z,97331.25
2023-04-08T22:16:40.157Z,97331.66
2023-04-08T22:19:36.963Z,97329.13
2023-04-08T22:22:33.782Z,97324.59
2023-04-08T22:25:30.652Z,97328.69
2023-04-08T22:28:27.479Z,97324.41
2023-04-08T22:31:24.403Z,97319.03
2023-04-08T22:34:21.417Z,97315.16
2023-04-08T22:37:18.304Z,97321.16
2023-04-08T22:40:15.498Z,97323.38
2023-04-08T22:43:12.307Z,97321.53
2023-04-08T22:46:09.147Z,97320.84
2023-04-08T22:49:06.253Z,97313.22
2023-04-08T22:52:03.075Z,97318.53
2023-04-08T22:54:59.920Z,97310.34
2023-04-08T22:57:56.927Z,97316.56
2023-04-08T23:00:53.756Z,97322.63
2023-04-08T23:03:50.605Z,97318.94
2023-04-08T23:06:47.488Z,97319.78
2023-04-08T23:09:44.298Z,97322.56
2023-04-08T23:12:41.673Z,97319.59
2023-04-08T23:15:38.656Z,97322.56
2023-04-08T23:18:35.701Z,97324.00
2023-04-08T23:21:32.550Z,97318.38
2023-04-08T23:24:29.373Z,97326.78
2023-04-08T23:27:26.184Z,97318.00
2023-04-08T23:30:23.124Z,97311.94
2023-04-08T23:33:19.981Z,97316.59
2023-04-08T23:36:16.835Z,97317.63
2023-04-08T23:39:13.698Z,97319.78
2023-04-08T23:42:10.506Z,97308.75
2023-04-08T23:45:07.799Z,97303.25
2023-04-08T23:48:05.037Z,97313.97
2023-04-08T23:51:01.858Z,97310.47
2023-04-08T23:53:58.703Z,97310.41
2023-04-08T23:56:56.043Z,97321.94
2023-04-08T23:59:52.858Z,97320.59
